Time;durP1;ratioP1;P1;durP2;ratioP2;P2;SDS_P1;SDS_P2;PMS_P1;PMS_P2;Temp;Humidity;BMP_temperature;BMP_pressure;BME280_temperature;BME280_humidity;BME280_pressure;Samples;Min_cycle;Max_cycle;Signal;HPM_P1;HPM_P2
2022/12/29 00:04:12;;;;;;;9.10;5.00;;;;;;;3.57;77.05;98491.84;420980;1298;111418;-39
2022/12/29 00:35:11;;;;;;;9.00;4.50;;;;;;;3.46;76.60;98470.14;420831;1298;110980;-40
2022/12/29 00:45:17;;;;;;;9.00;4.50;;;;;;;3.48;76.61;98463.08;420881;1292;107329;-41
2022/12/29 00:55:24;;;;;;;8.60;4.80;;;;;;;3.43;76.83;98450.48;420851;1292;98800;-40
2022/12/29 01:05:31;;;;;;;13.20;5.60;;;;;;;3.30;76.79;98444.88;420884;1290;108489;-40
2022/12/29 01:15:39;;;;;;;11.10;6.20;;;;;;;3.20;76.92;98437.27;420909;1292;99242;-40
2022/12/29 01:25:46;;;;;;;6.80;3.90;;;;;;;3.20;76.98;98421.78;420843;1290;112100;-39
2022/12/29 01:35:53;;;;;;;7.10;4.40;;;;;;;3.32;77.07;98421.20;420817;1291;108220;-40
2022/12/29 01:46:00;;;;;;;8.90;5.30;;;;;;;3.42;77.21;98434.27;420953;1298;98062;-38
2022/12/29 01:56:11;;;;;;;12.30;5.60;;;;;;;3.47;77.33;98423.34;420796;1298;107945;-40
2022/12/29 02:06:19;;;;;;;9.20;4.80;;;;;;;3.49;77.18;98418.75;420838;1291;99268;-40
2022/12/29 02:16:31;;;;;;;10.00;5.20;;;;;;;3.51;77.27;98397.66;420809;1290;112201;-39
2022/12/29 02:26:55;;;;;;;4.40;3.00;;;;;;;3.59;77.16;98398.42;420847;1291;107872;-40
2022/12/29 02:47:12;;;;;;;8.10;5.40;;;;;;;3.84;76.87;98365.83;421084;1299;110942;-40
2022/12/29 02:57:31;;;;;;;9.30;5.00;;;;;;;3.86;76.64;98353.48;420872;1299;107832;-39
2022/12/29 03:07:39;;;;;;;10.20;5.20;;;;;;;3.83;76.51;98352.74;420936;1298;99335;-40
2022/12/29 03:27:56;;;;;;;8.10;3.70;;;;;;;3.88;76.28;98336.71;420933;1299;107907;-40
2022/12/29 03:48:18;;;;;;;14.90;5.50;;;;;;;3.94;76.26;98350.86;420771;1299;107671;-39
2022/12/29 03:58:25;;;;;;;13.00;5.20;;;;;;;3.95;75.92;98336.38;420863;1287;99252;-39
2022/12/29 04:08:33;;;;;;;6.60;4.10;;;;;;;3.92;75.87;98337.33;420932;1302;111395;-39
2022/12/29 04:18:40;;;;;;;8.60;4.20;;;;;;;3.99;75.62;98316.83;420791;1287;108346;-40
2022/12/29 04:28:47;;;;;;;9.70;4.70;;;;;;;3.97;75.17;98292.71;420897;1288;118110;-39
2022/12/29 04:38:54;;;;;;;9.40;5.00;;;;;;;3.89;75.11;98298.77;420811;1299;107802;-39
2022/12/29 04:49:07;;;;;;;9.50;4.40;;;;;;;3.79;74.91;98295.39;420962;1284;99214;-40
2022/12/29 04:59:15;;;;;;;10.70;4.00;;;;;;;3.75;74.66;98296.27;420810;1292;111975;-40
2022/12/29 05:09:23;;;;;;;8.30;4.50;;;;;;;3.69;74.87;98295.94;420818;1295;108478;-39
2022/12/29 05:19:31;;;;;;;9.00;5.00;;;;;;;3.57;74.98;98288.36;420917;1292;99243;-39
2022/12/29 05:29:39;;;;;;;9.30;5.50;;;;;;;3.46;75.03;98274.94;420906;1298;107699;-38
2022/12/29 05:39:46;;;;;;;7.30;4.00;;;;;;;3.48;75.02;98260.31;420948;1292;97974;-39
2022/12/29 05:49:53;;;;;;;6.10;3.80;;;;;;;3.61;74.94;98259.98;420772;1299;112202;-40
2022/12/29 06:00:00;;;;;;;11.20;6.60;;;;;;;3.67;75.27;98269.46;420889;1299;108841;-39
2022/12/29 06:20:15;;;;;;;11.00;5.40;;;;;;;3.77;75.17;98274.49;421004;1298;108056;-40
2022/12/29 06:30:23;;;;;;;7.80;4.40;;;;;;;3.87;74.99;98262.84;420957;1284;98031;-39
2022/12/29 06:40:30;;;;;;;7.50;4.20;;;;;;;4.06;74.64;98249.21;420941;1298;111735;-40
2022/12/29 06:50:37;;;;;;;8.70;5.80;;;;;;;4.17;74.65;98231.24;421012;1295;108018;-42
2022/12/29 07:00:44;;;;;;;11.40;6.00;;;;;;;4.22;74.40;98230.67;421086;1290;99217;-40
2022/12/29 07:10:51;;;;;;;14.00;6.20;;;;;;;4.26;74.38;98226.34;421007;1299;108307;-39
2022/12/29 07:20:59;;;;;;;11.50;5.60;;;;;;;4.26;74.24;98241.13;420995;1291;99055;-39
2022/12/29 07:31:07;;;;;;;6.30;4.00;;;;;;;4.36;74.14;98252.02;420822;1298;111158;-39
2022/12/29 07:41:14;;;;;;;11.30;5.50;;;;;;;4.51;73.97;98265.73;420959;1298;107920;-40
2022/12/29 07:51:21;;;;;;;10.80;6.60;;;;;;;4.64;73.83;98258.41;420908;1298;98046;-40
2022/12/29 08:01:28;;;;;;;13.60;6.60;;;;;;;5.01;73.26;98226.04;421147;1292;112167;-40
2022/12/29 08:11:36;;;;;;;9.30;5.70;;;;;;;5.41;72.38;98211.71;421066;1291;108802;-40
2022/12/29 08:21:43;;;;;;;10.60;6.30;;;;;;;5.81;72.45;98229.98;420947;1291;98036;-39
2022/12/29 08:31:51;;;;;;;12.70;5.70;;;;;;;6.36;72.59;98230.46;421134;1292;108482;-40
2022/12/29 08:41:58;;;;;;;13.30;7.80;;;;;;;6.80;71.32;98227.80;420918;1294;99245;-40
2022/12/29 08:52:06;;;;;;;8.50;5.40;;;;;;;7.17;70.66;98244.45;420862;1298;112157;-40
2022/12/29 09:02:13;;;;;;;8.70;5.90;;;;;;;6.93;69.73;98248.35;420944;1289;107876;-40
2022/12/29 09:12:27;;;;;;;9.70;5.90;;;;;;;6.57;69.82;98237.64;420958;1298;98056;-40
2022/12/29 09:22:41;;;;;;;11.50;6.40;;;;;;;6.35;69.72;98237.63;421091;1298;111759;-39
2022/12/29 09:32:49;;;;;;;8.70;6.00;;;;;;;6.25;69.60;98231.31;420868;1292;107813;-39
2022/12/29 09:43:17;;;;;;;13.10;7.20;;;;;;;6.26;69.39;98229.36;420983;1298;99252;-40
2022/12/29 09:53:26;;;;;;;12.20;6.30;;;;;;;6.25;69.47;98235.10;420890;1298;114435;-40
2022/12/29 10:03:35;;;;;;;13.40;6.10;;;;;;;6.31;69.57;98233.92;420823;1291;108434;-40
2022/12/29 10:13:42;;;;;;;10.80;6.00;;;;;;;6.54;69.49;98220.29;421111;1298;99246;-41
2022/12/29 10:34:06;;;;;;;12.50;6.90;;;;;;;7.12;69.07;98196.77;421032;1284;107477;-40
2022/12/29 10:44:15;;;;;;;10.90;5.90;;;;;;;7.31;69.16;98191.80;420936;1298;98030;-39
2022/12/29 10:54:23;;;;;;;13.20;7.10;;;;;;;7.31;68.84;98192.23;420957;1298;111452;-39
2022/12/29 11:04:47;;;;;;;12.30;7.40;;;;;;;7.26;69.02;98196.82;420979;1292;107525;-40
2022/12/29 11:15:19;;;;;;;14.80;7.50;;;;;;;7.38;68.31;98180.85;421001;1278;97976;-40
2022/12/29 11:25:27;;;;;;;11.60;7.40;;;;;;;7.39;68.56;98183.30;420946;1295;112316;-40
2022/12/29 11:35:33;;;;;;;12.30;7.50;;;;;;;7.32;68.32;98174.91;420860;1299;106617;-40
2022/12/29 11:45:47;;;;;;;10.50;7.40;;;;;;;7.24;68.34;98170.08;420855;1288;98072;-40
2022/12/29 11:55:53;;;;;;;18.00;7.30;;;;;;;7.29;68.06;98174.41;420845;1291;110632;-41
2022/12/29 12:05:59;;;;;;;11.60;5.90;;;;;;;7.31;68.05;98168.45;420873;1298;107585;-40
2022/12/29 12:16:09;;;;;;;10.10;6.40;;;;;;;7.36;67.96;98161.45;420997;1284;99125;-41
2022/12/29 12:26:20;;;;;;;14.90;8.40;;;;;;;7.37;68.57;98159.16;420969;1290;107464;-41
2022/12/29 12:36:54;;;;;;;18.20;8.40;;;;;;;7.30;68.75;98165.43;420933;1291;99051;-43
2022/12/29 12:47:05;;;;;;;13.40;7.40;;;;;;;7.27;68.97;98163.88;420880;1294;111825;-40
2022/12/29 12:57:12;;;;;;;14.50;8.30;;;;;;;7.29;69.59;98163.66;420874;1298;107772;-40
2022/12/29 13:07:19;;;;;;;14.00;8.30;;;;;;;7.16;69.73;98171.98;420884;1294;99223;-44
2022/12/29 13:17:25;;;;;;;15.70;8.50;;;;;;;7.02;70.08;98175.44;420978;1298;107878;-40
2022/12/29 13:27:44;;;;;;;22.00;9.80;;;;;;;6.90;70.11;98170.67;421033;1291;99106;-40
2022/12/29 13:37:55;;;;;;;15.10;8.10;;;;;;;6.83;70.23;98168.38;420892;1298;112438;-39
2022/12/29 13:48:00;;;;;;;12.80;8.40;;;;;;;6.83;70.62;98163.77;420850;1292;109357;-40
2022/12/29 13:58:12;;;;;;;17.80;9.70;;;;;;;6.80;70.90;98162.50;420855;1298;99251;-40
2022/12/29 14:08:20;;;;;;;21.00;11.10;;;;;;;6.71;70.95;98159.52;420989;1298;108793;-39
2022/12/29 14:18:29;;;;;;;19.70;9.30;;;;;;;6.65;70.97;98161.65;420964;1298;98030;-40
2022/12/29 14:38:47;;;;;;;21.00;10.10;;;;;;;6.62;71.57;98168.65;420713;1294;404500;-39
2022/12/29 14:48:56;;;;;;;17.80;9.90;;;;;;;6.59;71.91;98164.14;421025;1291;99223;-39
2022/12/29 14:59:04;;;;;;;25.50;12.20;;;;;;;6.62;72.12;98167.27;420994;1298;107620;-41
2022/12/29 15:09:14;;;;;;;25.80;12.90;;;;;;;6.66;72.29;98176.83;421040;1298;99026;-41
2022/12/29 15:19:24;;;;;;;20.50;9.00;;;;;;;6.72;72.26;98175.97;420949;1292;110348;-40
2022/12/29 15:29:32;;;;;;;20.30;10.60;;;;;;;6.84;72.32;98186.91;420922;1292;108166;-40
2022/12/29 15:49:44;;;;;;;22.30;12.60;;;;;;;6.76;72.84;98187.13;420893;1295;107568;-40
2022/12/29 15:59:53;;;;;;;22.10;11.80;;;;;;;6.70;72.85;98185.93;420943;1291;99597;-40
2022/12/29 16:10:02;;;;;;;23.80;12.90;;;;;;;6.71;72.87;98189.64;421012;1298;111201;-41
2022/12/29 16:20:20;;;;;;;20.30;11.40;;;;;;;6.80;73.05;98188.02;420977;1298;107394;-40
2022/12/29 16:30:30;;;;;;;22.80;11.20;;;;;;;6.98;73.15;98184.30;420980;1295;99246;-41
2022/12/29 16:40:40;;;;;;;27.20;14.20;;;;;;;7.02;73.03;98185.63;421023;1298;107182;-39
2022/12/29 16:50:50;;;;;;;26.00;13.40;;;;;;;7.05;72.77;98189.47;421085;1291;99227;-41
2022/12/29 17:00:58;;;;;;;31.40;17.00;;;;;;;7.05;72.72;98199.98;421004;1294;111924;-40
2022/12/29 17:21:30;;;;;;;22.40;12.00;;;;;;;7.15;72.76;98210.70;421066;1295;98015;-40
2022/12/29 17:31:37;;;;;;;42.30;17.70;;;;;;;7.09;72.47;98212.66;420964;1297;107502;-41
2022/12/29 17:41:46;;;;;;;38.50;17.80;;;;;;;6.92;72.54;98222.45;421010;1292;99242;-39
2022/12/29 17:51:54;;;;;;;31.00;15.00;;;;;;;6.76;72.40;98223.59;420931;1289;110977;-41
2022/12/29 18:02:02;;;;;;;27.70;13.70;;;;;;;6.64;72.55;98227.16;420897;1298;108921;-40
2022/12/29 18:12:25;;;;;;;20.30;11.00;;;;;;;6.63;72.63;98231.37;420903;1292;98151;-40
2022/12/29 18:22:32;;;;;;;32.00;15.70;;;;;;;6.58;72.81;98232.33;420819;1298;111747;-41
2022/12/29 18:32:54;;;;;;;30.20;14.60;;;;;;;6.48;72.71;98230.52;420806;1292;109317;-40
2022/12/29 18:43:02;;;;;;;33.00;16.00;;;;;;;6.37;72.91;98230.26;420904;1298;99510;-41
2022/12/29 18:53:10;;;;;;;37.90;17.30;;;;;;;6.30;72.74;98233.38;421045;1298;110979;-40
2022/12/29 19:03:20;;;;;;;23.10;13.30;;;;;;;6.30;72.74;98228.12;420864;1298;106657;-40
2022/12/29 19:13:29;;;;;;;28.40;14.10;;;;;;;6.30;72.79;98225.17;420942;1291;98870;-41
2022/12/29 19:23:40;;;;;;;33.10;16.50;;;;;;;6.26;72.73;98227.39;420824;1295;111199;-40
2022/12/29 19:33:47;;;;;;;37.30;16.50;;;;;;;6.13;72.58;98229.11;420963;1291;99237;-41
2022/12/29 19:43:53;;;;;;;25.10;13.60;;;;;;;6.02;72.67;98232.05;420928;1298;110841;-40
2022/12/29 19:54:01;;;;;;;25.50;14.00;;;;;;;6.03;72.70;98232.92;420782;1289;108068;-39
2022/12/29 20:04:08;;;;;;;32.60;16.80;;;;;;;6.02;72.79;98238.10;421067;1295;99261;-40
2022/12/29 20:14:15;;;;;;;32.20;16.50;;;;;;;5.92;72.99;98239.31;420941;1292;112656;-41
2022/12/29 20:24:23;;;;;;;34.00;16.70;;;;;;;5.79;73.09;98241.29;420978;1299;107553;-40
2022/12/29 20:34:30;;;;;;;25.50;14.10;;;;;;;5.69;73.12;98239.64;420939;1299;99255;-39
2022/12/29 20:44:38;;;;;;;25.60;12.60;;;;;;;5.71;73.36;98231.91;420835;1299;106684;-39
2022/12/29 20:54:45;;;;;;;28.40;14.80;;;;;;;5.75;73.68;98236.73;420840;1298;99239;-41
2022/12/29 21:04:52;;;;;;;28.00;14.90;;;;;;;5.64;73.81;98238.70;420981;1292;111703;-40
2022/12/29 21:15:19;;;;;;;21.00;11.50;;;;;;;5.52;73.69;98244.92;420862;1291;108508;-40
2022/12/29 21:35:37;;;;;;;25.60;11.80;;;;;;;5.50;74.01;98250.59;420916;1299;107375;-40
2022/12/29 21:55:55;;;;;;;26.90;13.90;;;;;;;5.27;74.32;98283.71;421155;1287;111261;-40
2022/12/29 22:16:27;;;;;;;15.00;9.40;;;;;;;5.05;74.54;98288.92;420914;1291;98578;-40
2022/12/29 22:36:42;;;;;;;21.00;11.70;;;;;;;5.08;74.56;98286.31;420913;1298;107323;-40
2022/12/29 22:46:49;;;;;;;25.20;13.50;;;;;;;4.97;74.71;98282.20;420898;1295;99211;-41
2022/12/29 22:56:55;;;;;;;26.90;14.30;;;;;;;4.84;74.79;98287.03;420876;1303;108599;-40
2022/12/29 23:07:02;;;;;;;17.80;9.90;;;;;;;4.78;74.92;98277.73;420813;1298;99217;-39
2022/12/29 23:17:10;;;;;;;14.70;10.20;;;;;;;4.81;75.03;98276.20;420954;1304;112158;-39
2022/12/29 23:27:17;;;;;;;19.50;12.10;;;;;;;4.78;75.21;98278.17;421071;1299;107451;-40
2022/12/29 23:37:24;;;;;;;26.50;14.40;;;;;;;4.69;75.22;98288.46;420995;1288;99212;-39
2022/12/29 23:47:32;;;;;;;22.20;13.40;;;;;;;4.58;75.40;98275.41;420946;1287;111205;-39
2022/12/29 23:57:39;;;;;;;22.80;11.80;;;;;;;4.61;75.53;98266.22;420893;1302;109258;-40
